createdAt,value
2023-02-21T00:01:00.855Z,8.14
2023-02-21T00:02:05.221Z,8.13
2023-02-21T00:03:09.361Z,8.12
2023-02-21T00:04:13.600Z,8.12
2023-02-21T00:05:17.942Z,8.12
2023-02-21T00:06:22.079Z,8.11
2023-02-21T00:07:26.335Z,8.11
2023-02-21T00:08:30.504Z,8.11
2023-02-21T00:09:34.748Z,8.11
2023-02-21T00:10:39.058Z,8.10
2023-02-21T00:11:57.182Z,8.11
2023-02-21T00:13:00.198Z,8.10
2023-02-21T00:14:04.436Z,8.10
2023-02-21T00:15:08.524Z,8.10
2023-02-21T00:16:12.794Z,8.10
2023-02-21T00:17:20.058Z,8.10
2023-02-21T00:18:23.332Z,8.10
2023-02-21T00:19:27.524Z,8.10
2023-02-21T00:20:31.787Z,8.10
2023-02-21T00:21:36.035Z,8.10
2023-02-21T00:22:40.288Z,8.10
2023-02-21T00:23:44.439Z,8.10
2023-02-21T00:24:48.688Z,8.10
2023-02-21T00:25:53.029Z,8.10
2023-02-21T00:26:57.187Z,8.10
2023-02-21T00:28:01.419Z,8.11
2023-02-21T00:29:05.594Z,8.10
2023-02-21T00:30:10.046Z,8.10
2023-02-21T00:31:28.211Z,8.10
2023-02-21T00:32:31.170Z,8.11
2023-02-21T00:33:35.311Z,8.12
2023-02-21T00:34:39.554Z,8.12
2023-02-21T00:35:43.756Z,8.12
2023-02-21T00:36:47.967Z,8.11
2023-02-21T00:37:52.277Z,8.11
2023-02-21T00:38:56.517Z,8.11
2023-02-21T00:40:00.652Z,8.11
2023-02-21T00:41:05.004Z,8.12
2023-02-21T00:42:09.214Z,8.11
2023-02-21T00:43:13.483Z,8.10
2023-02-21T00:44:17.702Z,8.09
2023-02-21T00:45:21.928Z,8.08
2023-02-21T00:46:26.227Z,8.08
2023-02-21T00:47:30.503Z,8.08
2023-02-21T00:48:34.611Z,8.07
2023-02-21T00:49:38.942Z,8.06
2023-02-21T00:50:43.145Z,8.05
2023-02-21T00:51:47.397Z,8.04
2023-02-21T00:53:05.805Z,8.04
2023-02-21T00:54:08.891Z,8.03
2023-02-21T00:55:13.169Z,8.03
2023-02-21T00:56:17.358Z,8.02
2023-02-21T00:57:21.663Z,8.01
2023-02-21T00:58:25.921Z,7.98
2023-02-21T00:59:30.112Z,7.98
2023-02-21T01:00:34.404Z,7.97
2023-02-21T01:01:38.692Z,7.97
2023-02-21T01:02:42.952Z,7.97
2023-02-21T01:03:47.215Z,7.97
2023-02-21T01:04:51.441Z,7.97
2023-02-21T01:06:09.758Z,7.97
2023-02-21T01:07:13.041Z,7.97
2023-02-21T01:08:17.287Z,7.97
2023-02-21T01:09:21.440Z,7.97
2023-02-21T01:10:25.562Z,7.97
2023-02-21T01:11:29.831Z,7.97
2023-02-21T01:12:34.015Z,7.98
2023-02-21T01:13:38.399Z,7.99
2023-02-21T01:14:42.648Z,8.00
2023-02-21T01:15:46.935Z,8.01
2023-02-21T01:16:51.124Z,8.01
2023-02-21T01:17:55.340Z,8.01
2023-02-21T01:18:59.575Z,8.02
2023-02-21T01:20:03.898Z,8.02
2023-02-21T01:21:08.077Z,8.03
2023-02-21T01:22:12.356Z,8.04
2023-02-21T01:23:16.679Z,8.04
2023-02-21T01:24:20.869Z,8.04
2023-02-21T01:25:25.073Z,8.04
2023-02-21T01:26:29.267Z,8.04
2023-02-21T01:27:33.569Z,8.04
2023-02-21T01:28:37.844Z,8.04
2023-02-21T01:29:42.116Z,8.04
2023-02-21T01:30:46.360Z,8.04
2023-02-21T01:31:50.501Z,8.04
2023-02-21T01:32:54.756Z,8.04
2023-02-21T01:33:58.979Z,8.05
2023-02-21T01:35:03.214Z,8.05
2023-02-21T01:36:07.439Z,8.05
2023-02-21T01:37:11.774Z,8.06
2023-02-21T01:38:15.953Z,8.06
2023-02-21T01:39:20.178Z,8.05
2023-02-21T01:40:24.430Z,8.06
2023-02-21T01:41:28.727Z,8.06
2023-02-21T01:42:32.924Z,8.06
2023-02-21T01:43:37.105Z,8.07
2023-02-21T01:44:41.456Z,8.07
2023-02-21T01:45:45.635Z,8.08
2023-02-21T01:46:49.848Z,8.08
2023-02-21T01:47:54.054Z,8.08
2023-02-21T01:48:58.316Z,8.08
2023-02-21T01:50:02.548Z,8.09
2023-02-21T01:51:06.810Z,8.09
2023-02-21T01:52:10.969Z,8.09
2023-02-21T01:53:15.114Z,8.09
2023-02-21T01:54:19.373Z,8.09
2023-02-21T01:55:23.615Z,8.09
2023-02-21T01:56:27.946Z,8.09
2023-02-21T01:57:32.085Z,8.09
2023-02-21T01:58:36.314Z,8.10
2023-02-21T01:59:40.517Z,8.10
2023-02-21T02:00:44.752Z,8.10
2023-02-21T02:01:49.058Z,8.10
2023-02-21T02:02:53.232Z,8.10
2023-02-21T02:03:57.438Z,8.09
2023-02-21T02:05:01.678Z,8.08
2023-02-21T02:06:05.982Z,8.08
2023-02-21T02:07:10.173Z,8.08
2023-02-21T02:08:14.282Z,8.09
2023-02-21T02:09:18.611Z,8.09
2023-02-21T02:10:22.828Z,8.08
2023-02-21T02:11:27.068Z,8.09
2023-02-21T02:12:45.455Z,8.09
2023-02-21T02:13:48.602Z,8.08
2023-02-21T02:14:52.733Z,8.08
2023-02-21T02:15:56.915Z,8.07
2023-02-21T02:17:03.570Z,8.07
2023-02-21T02:18:05.298Z,8.07
2023-02-21T02:19:09.570Z,8.07
2023-02-21T02:20:13.703Z,8.07
2023-02-21T02:21:17.957Z,8.07
2023-02-21T02:22:22.157Z,8.07
2023-02-21T02:23:26.429Z,8.06
2023-02-21T02:24:30.580Z,8.06
2023-02-21T02:25:34.816Z,8.05
2023-02-21T02:26:39.033Z,8.06
2023-02-21T02:27:43.272Z,8.05
2023-02-21T02:28:47.539Z,8.04
2023-02-21T02:29:51.726Z,8.04
2023-02-21T02:30:55.970Z,8.03
2023-02-21T02:32:00.411Z,8.02
2023-02-21T02:33:04.466Z,8.01
2023-02-21T02:34:08.659Z,8.00
2023-02-21T02:35:13.009Z,7.98
2023-02-21T02:36:17.188Z,7.97
2023-02-21T02:37:21.413Z,7.96
2023-02-21T02:38:25.630Z,7.95
2023-02-21T02:39:29.876Z,7.94
2023-02-21T02:40:34.090Z,7.93
2023-02-21T02:41:38.348Z,7.92
2023-02-21T02:42:42.643Z,7.90
2023-02-21T02:43:46.898Z,7.87
2023-02-21T02:44:51.086Z,7.85
2023-02-21T02:45:55.306Z,7.85
2023-02-21T02:46:59.499Z,7.85
2023-02-21T02:48:03.837Z,7.84
2023-02-21T02:49:08.004Z,7.83
2023-02-21T02:50:12.209Z,7.81
2023-02-21T02:51:16.768Z,7.80
2023-02-21T02:53:47.899Z,7.76
2023-02-21T02:54:52.018Z,7.76
2023-02-21T02:55:56.202Z,7.76
2023-02-21T02:57:00.407Z,7.76
2023-02-21T02:58:04.696Z,7.75
2023-02-21T02:59:08.887Z,7.73
2023-02-21T03:00:13.090Z,7.72
2023-02-21T03:01:17.394Z,7.71
2023-02-21T03:02:21.591Z,7.70
2023-02-21T03:03:25.926Z,7.68
2023-02-21T03:04:30.143Z,7.68
2023-02-21T03:05:34.346Z,7.67
2023-02-21T03:06:38.560Z,7.67
2023-02-21T03:07:42.947Z,7.67
2023-02-21T03:08:47.063Z,7.67
2023-02-21T03:09:51.328Z,7.66
2023-02-21T03:10:55.612Z,7.66
2023-02-21T03:11:59.793Z,7.63
2023-02-21T03:13:04.000Z,7.62
2023-02-21T03:14:08.279Z,7.62
2023-02-21T03:15:12.473Z,7.62
2023-02-21T03:16:16.766Z,7.62
2023-02-21T03:17:20.797Z,7.62
2023-02-21T03:18:25.151Z,7.61
2023-02-21T03:19:29.368Z,7.61
2023-02-21T03:20:33.529Z,7.60
2023-02-21T03:21:37.742Z,7.59
2023-02-21T03:22:42.069Z,7.58
2023-02-21T03:24:00.329Z,7.58
2023-02-21T03:25:03.317Z,7.57
2023-02-21T03:26:07.564Z,7.56
2023-02-21T03:27:11.664Z,7.54
2023-02-21T03:28:15.913Z,7.52
2023-02-21T03:29:20.231Z,7.50
2023-02-21T03:30:24.468Z,7.49
2023-02-21T03:31:28.819Z,7.47
2023-02-21T03:32:32.877Z,7.46
2023-02-21T03:33:37.076Z,7.45
2023-02-21T03:34:44.313Z,7.43
2023-02-21T03:35:47.633Z,7.42
2023-02-21T03:36:51.844Z,7.41
2023-02-21T03:37:56.043Z,7.39
2023-02-21T03:39:00.346Z,7.39
2023-02-21T03:40:04.494Z,7.39
2023-02-21T03:41:08.697Z,7.39
2023-02-21T03:42:12.859Z,7.39
2023-02-21T03:43:17.028Z,7.38
2023-02-21T03:44:21.356Z,7.38
2023-02-21T03:45:25.502Z,7.38
2023-02-21T03:46:29.758Z,7.37
2023-02-21T03:47:33.962Z,7.37
2023-02-21T03:48:38.190Z,7.36
2023-02-21T03:49:42.491Z,7.36
2023-02-21T03:50:46.614Z,7.36
2023-02-21T03:51:50.864Z,7.35
2023-02-21T03:52:55.068Z,7.36
2023-02-21T03:53:59.317Z,7.36
2023-02-21T03:55:03.568Z,7.35
2023-02-21T03:56:07.765Z,7.34
2023-02-21T03:57:11.932Z,7.34
2023-02-21T03:58:16.266Z,7.34
2023-02-21T03:59:20.484Z,7.35
2023-02-21T04:00:24.719Z,7.36
2023-02-21T04:01:28.922Z,7.35
2023-02-21T04:02:33.164Z,7.35
2023-02-21T04:03:37.365Z,7.35
2023-02-21T04:04:41.541Z,7.34
2023-02-21T04:05:45.756Z,7.34
2023-02-21T04:06:49.935Z,7.34
2023-02-21T04:07:54.306Z,7.34
2023-02-21T04:08:58.517Z,7.34
2023-02-21T04:10:02.721Z,7.34
2023-02-21T04:11:06.890Z,7.34
2023-02-21T04:12:11.205Z,7.34
2023-02-21T04:13:15.385Z,7.34
2023-02-21T04:14:19.590Z,7.33
2023-02-21T04:15:23.965Z,7.33
2023-02-21T04:16:28.171Z,7.33
2023-02-21T04:17:32.370Z,7.32
2023-02-21T04:18:37.805Z,7.31
2023-02-21T04:19:40.795Z,7.31
2023-02-21T04:20:45.034Z,7.30
2023-02-21T04:21:49.254Z,7.30
2023-02-21T04:23:02.821Z,7.30
2023-02-21T04:23:57.668Z,7.30
2023-02-21T04:25:01.979Z,7.31
2023-02-21T04:26:06.129Z,7.31
2023-02-21T04:27:10.316Z,7.31
2023-02-21T04:28:14.518Z,7.31
2023-02-21T04:29:18.765Z,7.31
2023-02-21T04:30:37.060Z,7.32
2023-02-21T04:31:40.150Z,7.32
2023-02-21T04:32:44.250Z,7.32
2023-02-21T04:33:48.381Z,7.31
2023-02-21T04:34:52.612Z,7.30
2023-02-21T04:35:56.897Z,7.30
2023-02-21T04:37:01.158Z,7.28
2023-02-21T04:38:05.339Z,7.27
2023-02-21T04:39:09.640Z,7.27
2023-02-21T04:40:13.800Z,7.26
2023-02-21T04:41:21.117Z,7.26
2023-02-21T04:42:24.408Z,7.26
2023-02-21T04:43:28.659Z,7.26
2023-02-21T04:44:33.013Z,7.26
2023-02-21T04:45:37.187Z,7.26
2023-02-21T04:46:41.445Z,7.25
2023-02-21T04:47:45.628Z,7.24
2023-02-21T04:48:49.982Z,7.23
2023-02-21T04:49:54.249Z,7.22
2023-02-21T04:51:13.482Z,7.20
2023-02-21T04:52:02.598Z,7.19
2023-02-21T04:53:06.800Z,7.18
2023-02-21T04:54:13.676Z,7.18
2023-02-21T04:55:15.238Z,7.17
2023-02-21T04:56:19.613Z,7.17
2023-02-21T04:57:23.730Z,7.17
2023-02-21T04:58:31.190Z,7.16
2023-02-21T04:59:32.213Z,7.16
2023-02-21T05:00:36.262Z,7.16
2023-02-21T05:01:40.530Z,7.14
2023-02-21T05:02:44.760Z,7.14
2023-02-21T05:03:48.967Z,7.14
2023-02-21T05:04:53.312Z,7.13
2023-02-21T05:05:57.426Z,7.13
2023-02-21T05:07:01.658Z,7.12
2023-02-21T05:08:05.816Z,7.11
2023-02-21T05:09:10.010Z,7.11
2023-02-21T05:10:14.236Z,7.11
2023-02-21T05:11:18.424Z,7.11
2023-02-21T05:12:22.637Z,7.11
2023-02-21T05:13:26.964Z,7.11
2023-02-21T05:14:31.140Z,7.11
2023-02-21T05:15:35.360Z,7.11
2023-02-21T05:16:39.608Z,7.10
2023-02-21T05:17:43.762Z,7.09
2023-02-21T05:18:48.022Z,7.09
2023-02-21T05:19:52.242Z,7.09
2023-02-21T05:20:56.531Z,7.09
2023-02-21T05:22:00.696Z,7.08
2023-02-21T05:23:13.423Z,7.06
2023-02-21T05:24:09.077Z,7.05
2023-02-21T05:25:13.296Z,7.06
2023-02-21T05:26:17.491Z,7.06
2023-02-21T05:27:21.789Z,7.06
2023-02-21T05:28:26.065Z,7.07
2023-02-21T05:29:30.199Z,7.07
2023-02-21T05:30:34.616Z,7.05
2023-02-21T05:31:38.746Z,7.05
2023-02-21T05:32:42.890Z,7.05
2023-02-21T05:33:47.158Z,7.04
2023-02-21T05:34:51.443Z,7.03
2023-02-21T05:35:55.568Z,7.03
2023-02-21T05:36:59.811Z,7.03
2023-02-21T05:38:04.016Z,7.03
2023-02-21T05:39:08.335Z,7.03
2023-02-21T05:40:12.397Z,7.03
2023-02-21T05:41:17.020Z,7.03
2023-02-21T05:42:20.790Z,7.02
2023-02-21T05:43:26.403Z,7.01
2023-02-21T05:44:29.319Z,7.02
2023-02-21T05:45:33.479Z,7.01
2023-02-21T05:46:37.716Z,7.02
2023-02-21T05:47:44.932Z,7.01
2023-02-21T05:48:48.256Z,7.01
2023-02-21T05:49:52.403Z,7.02
2023-02-21T05:50:56.716Z,7.02
2023-02-21T05:52:00.876Z,7.01
2023-02-21T05:53:05.150Z,7.01
2023-02-21T05:54:09.347Z,7.01
2023-02-21T05:55:13.534Z,7.02
2023-02-21T05:56:17.756Z,7.02
2023-02-21T05:57:22.019Z,7.02
2023-02-21T05:58:26.188Z,7.02
2023-02-21T05:59:30.384Z,7.01
2023-02-21T06:00:34.638Z,7.00
2023-02-21T06:01:38.822Z,6.99
2023-02-21T06:02:43.060Z,6.99
2023-02-21T06:03:47.450Z,6.98
2023-02-21T06:04:51.538Z,6.97
2023-02-21T06:05:55.738Z,6.96
2023-02-21T06:06:59.909Z,6.95
2023-02-21T06:08:04.144Z,6.93
2023-02-21T06:09:08.453Z,6.93
2023-02-21T06:10:12.613Z,6.92
2023-02-21T06:11:17.339Z,6.91
2023-02-21T06:12:21.084Z,6.90
2023-02-21T06:13:25.271Z,6.89
2023-02-21T06:14:29.475Z,6.89
2023-02-21T06:15:33.771Z,6.90
2023-02-21T06:16:37.990Z,6.90
2023-02-21T06:17:42.131Z,6.90
2023-02-21T06:18:46.443Z,6.90
2023-02-21T06:19:50.705Z,6.90
2023-02-21T06:20:54.952Z,6.90
2023-02-21T06:21:59.108Z,6.89
2023-02-21T06:23:03.313Z,6.89
2023-02-21T06:24:07.593Z,6.89
2023-02-21T06:25:11.835Z,6.89
2023-02-21T06:26:16.061Z,6.89
2023-02-21T06:27:20.246Z,6.89
2023-02-21T06:28:24.450Z,6.87
2023-02-21T06:29:28.773Z,6.87
2023-02-21T06:30:33.046Z,6.87
2023-02-21T06:31:37.276Z,6.86
2023-02-21T06:32:41.350Z,6.86
2023-02-21T06:33:45.589Z,6.86
2023-02-21T06:34:49.791Z,6.86
2023-02-21T06:35:53.970Z,6.86
2023-02-21T06:36:58.397Z,6.86
2023-02-21T06:38:02.537Z,6.86
2023-02-21T06:39:12.757Z,6.84
2023-02-21T06:40:15.621Z,6.83
2023-02-21T06:41:19.726Z,6.82
2023-02-21T06:42:23.935Z,6.82
2023-02-21T06:43:28.125Z,6.82
2023-02-21T06:44:32.372Z,6.82
2023-02-21T06:45:36.569Z,6.82
2023-02-21T06:46:40.752Z,6.82
2023-02-21T06:47:45.114Z,6.83
2023-02-21T06:48:49.277Z,6.82
2023-02-21T06:49:53.539Z,6.82
2023-02-21T06:50:57.706Z,6.82
2023-02-21T06:52:01.982Z,6.83
2023-02-21T06:53:06.111Z,6.84
2023-02-21T06:54:16.430Z,6.84
2023-02-21T06:55:19.169Z,6.85
2023-02-21T06:56:23.361Z,6.86
2023-02-21T06:57:27.578Z,6.86
2023-02-21T06:58:31.774Z,6.88
2023-02-21T06:59:35.905Z,6.89
2023-02-21T07:00:40.141Z,6.90
2023-02-21T07:01:44.433Z,6.91
2023-02-21T07:02:48.622Z,6.91
2023-02-21T07:03:52.856Z,6.92
2023-02-21T07:04:57.216Z,6.92
2023-02-21T07:06:01.264Z,6.93
2023-02-21T07:07:05.476Z,6.93
2023-02-21T07:08:09.770Z,6.94
2023-02-21T07:09:14.009Z,6.94
2023-02-21T07:10:18.180Z,6.95
2023-02-21T07:11:22.484Z,6.96
2023-02-21T07:12:26.763Z,6.95
2023-02-21T07:13:34.044Z,6.95
2023-02-21T07:14:37.339Z,6.96
2023-02-21T07:15:41.573Z,6.96
2023-02-21T07:16:45.800Z,6.97
2023-02-21T07:17:50.018Z,6.97
2023-02-21T07:18:54.350Z,6.98
2023-02-21T07:19:58.581Z,7.00
2023-02-21T07:21:02.755Z,7.02
2023-02-21T07:22:07.024Z,7.03
2023-02-21T07:23:11.189Z,7.05
2023-02-21T07:24:15.462Z,7.07
2023-02-21T07:25:19.636Z,7.08
2023-02-21T07:26:23.899Z,7.09
2023-02-21T07:28:55.491Z,7.12
2023-02-21T07:29:59.535Z,7.14
2023-02-21T07:31:03.802Z,7.16
2023-02-21T07:32:07.922Z,7.17
2023-02-21T07:33:12.184Z,7.18
2023-02-21T07:34:16.336Z,7.18
2023-02-21T07:35:20.679Z,7.19
2023-02-21T07:36:24.895Z,7.19
2023-02-21T07:37:29.056Z,7.20
2023-02-21T07:38:33.333Z,7.20
2023-02-21T07:39:37.476Z,7.21
2023-02-21T07:40:41.818Z,7.22
2023-02-21T07:41:46.023Z,7.23
2023-02-21T07:42:50.206Z,7.25
2023-02-21T07:43:54.434Z,7.26
2023-02-21T07:44:58.667Z,7.26
2023-02-21T07:46:02.919Z,7.28
2023-02-21T07:47:06.979Z,7.29
2023-02-21T07:48:11.333Z,7.30
2023-02-21T07:49:15.665Z,7.31
2023-02-21T07:50:19.805Z,7.31
2023-02-21T07:51:23.944Z,7.32
2023-02-21T07:52:28.141Z,7.32
2023-02-21T07:53:32.323Z,7.34
2023-02-21T07:54:36.591Z,7.34
2023-02-21T07:55:40.761Z,7.35
2023-02-21T07:56:44.982Z,7.37
2023-02-21T07:57:49.189Z,7.39
2023-02-21T07:58:53.431Z,7.39
2023-02-21T07:59:57.635Z,7.40
2023-02-21T08:01:01.971Z,7.42
2023-02-21T08:02:06.124Z,7.43
2023-02-21T08:03:10.213Z,7.44
2023-02-21T08:04:14.473Z,7.45
2023-02-21T08:05:32.735Z,7.46
2023-02-21T08:06:35.765Z,7.48
2023-02-21T08:07:40.036Z,7.49
2023-02-21T08:08:44.205Z,7.51
2023-02-21T08:09:48.392Z,7.52
2023-02-21T08:10:52.634Z,7.53
2023-02-21T08:11:56.909Z,7.54
2023-02-21T08:13:01.291Z,7.55
2023-02-21T08:14:05.398Z,7.56
2023-02-21T08:15:09.731Z,7.57
2023-02-21T08:16:28.307Z,7.58
2023-02-21T08:17:31.008Z,7.59
2023-02-21T08:18:35.272Z,7.61
2023-02-21T08:19:39.528Z,7.63
2023-02-21T08:20:43.679Z,7.64
2023-02-21T08:21:48.032Z,7.66
2023-02-21T08:22:52.179Z,7.67
2023-02-21T08:23:56.412Z,7.69
2023-02-21T08:25:00.609Z,7.71
2023-02-21T08:26:04.784Z,7.72
2023-02-21T08:27:09.031Z,7.74
2023-02-21T08:28:13.238Z,7.76
2023-02-21T08:29:17.444Z,7.79
2023-02-21T08:30:21.669Z,7.81
2023-02-21T08:31:25.769Z,7.82
2023-02-21T08:32:30.200Z,7.84
2023-02-21T08:33:34.302Z,7.87
2023-02-21T08:34:38.470Z,7.89
2023-02-21T08:35:42.778Z,7.92
2023-02-21T08:36:46.945Z,7.96
2023-02-21T08:37:51.214Z,7.99
2023-02-21T08:38:55.394Z,8.01
2023-02-21T08:39:59.665Z,8.03
2023-02-21T08:41:03.944Z,8.05
2023-02-21T08:42:08.094Z,8.07
2023-02-21T08:43:12.379Z,8.08
2023-02-21T08:44:16.490Z,8.08
2023-02-21T08:45:20.716Z,8.10
2023-02-21T08:46:24.976Z,8.11
2023-02-21T08:47:29.234Z,8.12
2023-02-21T08:48:33.542Z,8.12
2023-02-21T08:49:37.770Z,8.12
2023-02-21T08:50:41.921Z,8.12
2023-02-21T08:51:46.226Z,8.13
2023-02-21T08:53:04.440Z,8.14
2023-02-21T08:54:07.444Z,8.16
2023-02-21T08:55:11.609Z,8.17
2023-02-21T08:56:15.818Z,8.18
2023-02-21T08:57:20.033Z,8.19
2023-02-21T08:58:24.297Z,8.20
2023-02-21T08:59:28.566Z,8.21
2023-02-21T09:00:32.794Z,8.21
2023-02-21T09:01:37.024Z,8.22
2023-02-21T09:02:41.264Z,8.23
2023-02-21T09:03:45.488Z,8.25
2023-02-21T09:04:49.709Z,8.27
2023-02-21T09:05:53.963Z,8.29
2023-02-21T09:06:58.206Z,8.30
2023-02-21T09:08:02.330Z,8.33
2023-02-21T09:09:06.562Z,8.36
2023-02-21T09:10:10.801Z,8.38
2023-02-21T09:11:15.337Z,8.40
2023-02-21T09:12:19.274Z,8.40
2023-02-21T09:13:23.500Z,8.39
2023-02-21T09:14:27.734Z,8.40
2023-02-21T09:15:31.920Z,8.41
2023-02-21T09:16:36.176Z,8.38
2023-02-21T09:17:40.338Z,8.35
2023-02-21T09:18:44.451Z,8.35
2023-02-21T09:19:48.815Z,8.35
2023-02-21T09:20:52.923Z,8.35
2023-02-21T09:21:57.194Z,8.35
2023-02-21T09:23:01.420Z,8.34
2023-02-21T09:24:05.684Z,8.34
2023-02-21T09:25:09.953Z,8.31
2023-02-21T09:26:14.207Z,8.32
2023-02-21T09:27:18.376Z,8.34
2023-02-21T09:28:22.617Z,8.35
2023-02-21T09:29:31.649Z,8.37
2023-02-21T09:30:31.197Z,8.41
2023-02-21T09:31:35.459Z,8.45
2023-02-21T09:32:39.730Z,8.43
2023-02-21T09:33:43.885Z,8.42
2023-02-21T09:34:48.049Z,8.41
2023-02-21T09:35:52.387Z,8.36
2023-02-21T09:36:56.568Z,8.31
2023-02-21T09:38:14.944Z,8.31
2023-02-21T09:39:18.043Z,8.30
2023-02-21T09:40:22.306Z,8.29
2023-02-21T09:41:26.497Z,8.27
2023-02-21T09:42:30.784Z,8.26
2023-02-21T09:43:34.936Z,8.22
2023-02-21T09:44:39.197Z,8.20
2023-02-21T09:45:43.532Z,8.20
2023-02-21T09:46:47.627Z,8.21
2023-02-21T09:47:51.962Z,8.21
2023-02-21T09:48:56.325Z,8.14
2023-02-21T09:50:00.574Z,8.09
2023-02-21T09:51:04.768Z,8.08
2023-02-21T09:52:08.971Z,8.07
2023-02-21T09:53:13.218Z,8.09
2023-02-21T09:54:17.453Z,8.10
2023-02-21T09:55:21.721Z,8.09
2023-02-21T09:56:26.018Z,8.09
2023-02-21T09:57:31.106Z,8.09
2023-02-21T09:58:34.978Z,8.12
2023-02-21T09:59:39.245Z,8.14
2023-02-21T10:00:46.509Z,8.17
2023-02-21T10:01:47.735Z,8.19
2023-02-21T10:03:06.109Z,8.23
2023-02-21T10:04:09.297Z,8.22
2023-02-21T10:05:13.438Z,8.25
2023-02-21T10:06:17.655Z,8.29
2023-02-21T10:07:21.865Z,8.29
2023-02-21T10:08:26.118Z,8.30
2023-02-21T10:09:30.344Z,8.33
2023-02-21T10:10:34.565Z,8.37
2023-02-21T10:11:38.806Z,8.37
2023-02-21T10:12:43.034Z,8.39
2023-02-21T10:13:47.329Z,8.39
2023-02-21T10:14:51.525Z,8.39
2023-02-21T10:15:55.843Z,8.37
2023-02-21T10:17:00.098Z,8.31
2023-02-21T10:18:04.285Z,8.23
2023-02-21T10:19:08.515Z,8.20
2023-02-21T10:20:12.761Z,8.20
2023-02-21T10:21:17.354Z,8.19
2023-02-21T10:22:22.233Z,8.17
2023-02-21T10:23:26.056Z,8.13
2023-02-21T10:24:30.285Z,8.12
2023-02-21T10:25:34.496Z,8.11
2023-02-21T10:26:38.759Z,8.15
2023-02-21T10:27:43.005Z,8.16
2023-02-21T10:28:47.311Z,8.14
2023-02-21T10:29:51.508Z,8.15
2023-02-21T10:30:55.867Z,8.09
2023-02-21T10:31:59.934Z,8.05
2023-02-21T10:33:04.243Z,7.99
2023-02-21T10:34:08.381Z,7.91
2023-02-21T10:35:12.701Z,7.86
2023-02-21T10:36:16.911Z,7.86
2023-02-21T10:37:21.138Z,7.86
2023-02-21T10:38:25.357Z,7.85
2023-02-21T10:39:29.682Z,7.87
2023-02-21T10:40:33.872Z,7.92
2023-02-21T10:41:38.094Z,7.96
2023-02-21T10:42:42.314Z,7.96
2023-02-21T10:43:46.602Z,7.98
2023-02-21T10:44:50.797Z,7.97
2023-02-21T10:45:58.067Z,7.98
2023-02-21T10:47:01.418Z,8.00
2023-02-21T10:48:05.714Z,7.94
2023-02-21T10:49:09.909Z,7.95
2023-02-21T10:50:14.133Z,7.96
2023-02-21T10:51:18.812Z,7.96
2023-02-21T10:52:22.653Z,7.99
2023-02-21T10:53:26.896Z,8.03
2023-02-21T10:54:33.458Z,8.05
2023-02-21T10:55:35.500Z,8.07
2023-02-21T10:56:39.859Z,8.13
2023-02-21T10:57:44.078Z,8.17
2023-02-21T10:58:48.272Z,8.20
2023-02-21T10:59:55.550Z,8.24
2023-02-21T11:00:58.867Z,8.26
2023-02-21T11:02:03.130Z,8.28
2023-02-21T11:03:07.441Z,8.30
2023-02-21T11:04:11.627Z,8.31
2023-02-21T11:05:15.865Z,8.25
2023-02-21T11:06:20.097Z,8.22
2023-02-21T11:07:24.351Z,8.25
2023-02-21T11:08:28.771Z,8.25
2023-02-21T11:09:32.949Z,8.22
2023-02-21T11:10:37.289Z,8.18
2023-02-21T11:11:44.473Z,8.19
2023-02-21T11:12:47.809Z,8.21
2023-02-21T11:13:52.088Z,8.21
2023-02-21T11:14:56.359Z,8.18
2023-02-21T11:16:00.560Z,8.18
2023-02-21T11:17:04.929Z,8.13
2023-02-21T11:18:09.109Z,8.07
2023-02-21T11:19:13.358Z,8.01
2023-02-21T11:20:20.739Z,8.00
2023-02-21T11:21:24.146Z,8.06
2023-02-21T11:22:28.407Z,8.10
2023-02-21T11:23:32.601Z,8.15
2023-02-21T11:24:36.962Z,8.18
2023-02-21T11:25:41.191Z,8.17
2023-02-21T11:26:45.370Z,8.18
2023-02-21T11:27:49.825Z,8.16
2023-02-21T11:28:54.057Z,8.10
2023-02-21T11:29:58.204Z,8.06
2023-02-21T11:31:02.507Z,7.97
2023-02-21T11:32:06.845Z,7.80
2023-02-21T11:33:10.993Z,7.74
2023-02-21T11:34:15.270Z,7.66
2023-02-21T11:35:19.504Z,7.61
2023-02-21T11:36:23.717Z,7.59
2023-02-21T11:37:27.956Z,7.59
2023-02-21T11:38:32.246Z,7.55
2023-02-21T11:39:36.551Z,7.60
2023-02-21T11:40:40.777Z,7.63
2023-02-21T11:41:45.140Z,7.64
2023-02-21T11:42:49.297Z,7.63
2023-02-21T11:43:53.527Z,7.61
2023-02-21T11:44:57.827Z,7.64
2023-02-21T11:46:16.141Z,7.61
2023-02-21T11:47:19.148Z,7.64
2023-02-21T11:48:23.393Z,7.77
2023-02-21T11:49:27.654Z,7.88
2023-02-21T11:50:31.898Z,7.95
2023-02-21T11:51:36.156Z,8.02
2023-02-21T11:52:40.351Z,8.05
2023-02-21T11:53:44.702Z,8.11
2023-02-21T11:54:48.852Z,8.22
2023-02-21T11:55:53.126Z,8.27
2023-02-21T11:56:57.498Z,8.30
2023-02-21T11:58:01.696Z,8.21
2023-02-21T11:59:05.936Z,8.20
2023-02-21T12:00:10.119Z,8.21
2023-02-21T12:01:14.903Z,8.15
2023-02-21T12:02:18.799Z,8.10
2023-02-21T12:03:23.086Z,7.90
2023-02-21T12:04:27.315Z,7.80
2023-02-21T12:05:31.666Z,7.67
2023-02-21T12:06:35.782Z,7.63
2023-02-21T12:07:40.134Z,7.58
2023-02-21T12:08:44.380Z,7.61
2023-02-21T12:09:48.540Z,7.70
2023-02-21T12:10:52.791Z,7.73
2023-02-21T12:11:57.018Z,7.81
2023-02-21T12:13:01.293Z,7.82
2023-02-21T12:14:05.530Z,7.67
2023-02-21T12:15:09.722Z,7.58
2023-02-21T12:16:14.100Z,7.57
2023-02-21T12:17:18.333Z,7.62
2023-02-21T12:18:22.536Z,7.67
2023-02-21T12:19:26.752Z,7.70
2023-02-21T12:20:31.061Z,7.72
2023-02-21T12:21:35.293Z,7.73
2023-02-21T12:22:42.213Z,7.75
2023-02-21T12:23:43.890Z,7.78
2023-02-21T12:24:48.065Z,7.61
2023-02-21T12:25:52.334Z,7.58
2023-02-21T12:26:56.640Z,7.62
2023-02-21T12:28:00.898Z,7.62
2023-02-21T12:29:05.110Z,7.60
2023-02-21T12:30:09.487Z,7.66
2023-02-21T12:31:14.262Z,7.69
2023-02-21T12:32:18.049Z,7.61
2023-02-21T12:33:23.856Z,7.50
2023-02-21T12:34:26.474Z,7.52
2023-02-21T12:35:30.850Z,7.55
2023-02-21T12:36:35.089Z,7.68
2023-02-21T12:37:39.452Z,7.73
2023-02-21T12:38:43.641Z,7.79
2023-02-21T12:39:47.877Z,7.88
2023-02-21T12:40:52.126Z,7.84
2023-02-21T12:41:56.357Z,7.85
2023-02-21T12:43:00.626Z,7.94
2023-02-21T12:44:05.007Z,7.95
2023-02-21T12:45:09.217Z,7.89
2023-02-21T12:46:13.510Z,7.85
2023-02-21T12:47:31.739Z,7.84
2023-02-21T12:48:34.616Z,7.84
2023-02-21T12:49:38.793Z,7.94
2023-02-21T12:50:43.075Z,8.01
2023-02-21T12:51:47.406Z,7.98
2023-02-21T12:52:51.820Z,7.98
2023-02-21T12:55:23.124Z,8.11
2023-02-21T12:56:27.327Z,8.19
2023-02-21T12:57:31.573Z,8.37
2023-02-21T12:58:35.923Z,8.47
2023-02-21T12:59:40.182Z,8.47
2023-02-21T13:00:44.408Z,8.52
2023-02-21T13:01:48.720Z,8.54
2023-02-21T13:02:53.094Z,8.58
2023-02-21T13:03:57.331Z,8.45
2023-02-21T13:05:01.516Z,8.38
2023-02-21T13:06:05.809Z,8.43
2023-02-21T13:07:10.049Z,8.34
2023-02-21T13:08:14.319Z,8.30
2023-02-21T13:09:18.560Z,8.15
2023-02-21T13:10:22.838Z,7.99
2023-02-21T13:11:27.115Z,8.00
2023-02-21T13:12:31.476Z,8.07
2023-02-21T13:13:35.759Z,8.08
2023-02-21T13:14:40.072Z,8.17
2023-02-21T13:15:44.288Z,8.25
2023-02-21T13:16:48.588Z,8.16
2023-02-21T13:17:52.933Z,8.05
2023-02-21T13:18:57.179Z,7.91
2023-02-21T13:20:01.564Z,7.85
2023-02-21T13:21:05.827Z,7.80
2023-02-21T13:22:10.027Z,7.80
2023-02-21T13:23:14.299Z,7.80
2023-02-21T13:24:18.628Z,7.84
2023-02-21T13:25:22.835Z,7.87
2023-02-21T13:26:27.194Z,7.85
2023-02-21T13:27:31.429Z,7.85
2023-02-21T13:28:49.795Z,7.81
2023-02-21T13:29:52.915Z,7.72
2023-02-21T13:31:00.316Z,7.67
2023-02-21T13:32:03.688Z,7.71
2023-02-21T13:33:08.010Z,7.74
2023-02-21T13:34:12.182Z,7.73
2023-02-21T13:35:16.442Z,7.72
2023-02-21T13:36:20.690Z,7.70
2023-02-21T13:37:24.918Z,7.70
2023-02-21T13:38:29.271Z,7.64
2023-02-21T13:39:33.536Z,7.60
2023-02-21T13:40:37.674Z,7.65
2023-02-21T13:41:42.066Z,7.68
2023-02-21T13:42:46.239Z,7.72
2023-02-21T13:43:50.501Z,7.69
2023-02-21T13:44:54.764Z,7.64
2023-02-21T13:45:59.090Z,7.63
2023-02-21T13:47:03.330Z,7.61
2023-02-21T13:48:07.565Z,7.59
2023-02-21T13:49:11.771Z,7.61
2023-02-21T13:50:16.103Z,7.64
2023-02-21T13:51:20.270Z,7.59
2023-02-21T13:52:24.527Z,7.59
2023-02-21T13:53:28.780Z,7.62
2023-02-21T13:54:33.048Z,7.58
2023-02-21T13:55:37.400Z,7.54
2023-02-21T13:56:41.573Z,7.49
2023-02-21T13:57:48.892Z,7.47
2023-02-21T13:58:52.277Z,7.49
2023-02-21T13:59:56.492Z,7.56
2023-02-21T14:01:00.737Z,7.56
2023-02-21T14:02:04.978Z,7.58
2023-02-21T14:03:09.411Z,7.59
2023-02-21T14:04:27.676Z,7.59
2023-02-21T14:05:31.158Z,7.63
2023-02-21T14:06:35.213Z,7.59
2023-02-21T14:07:39.425Z,7.54
2023-02-21T14:08:43.672Z,7.59
2023-02-21T14:09:47.971Z,7.66
2023-02-21T14:10:52.222Z,7.68
2023-02-21T14:11:56.421Z,7.67
2023-02-21T14:13:00.668Z,7.65
2023-02-21T14:14:04.983Z,7.61
2023-02-21T14:15:09.240Z,7.55
2023-02-21T14:16:13.698Z,7.52
2023-02-21T14:17:18.974Z,7.47
2023-02-21T14:18:21.995Z,7.43
2023-02-21T14:19:26.243Z,7.39
2023-02-21T14:20:30.384Z,7.40
2023-02-21T14:21:34.652Z,7.45
2023-02-21T14:22:38.933Z,7.48
2023-02-21T14:23:43.161Z,7.45